createdAt,value
2022-10-24T00:01:11.611Z,1.92
2022-10-24T00:03:38.901Z,1.75
2022-10-24T00:06:08.127Z,1.90
2022-10-24T00:08:36.863Z,2.00
2022-10-24T00:11:10.754Z,2.25
2022-10-24T00:13:38.525Z,2.25
2022-10-24T00:16:05.770Z,2.00
2022-10-24T00:18:32.720Z,3.03
2022-10-24T00:20:59.738Z,2.28
2022-10-24T00:23:27.139Z,1.88
2022-10-24T00:25:53.999Z,1.98
2022-10-24T00:28:20.828Z,1.95
2022-10-24T00:30:52.498Z,1.67
2022-10-24T00:33:19.703Z,1.60
2022-10-24T00:35:47.085Z,1.80
2022-10-24T00:38:14.451Z,1.60
2022-10-24T00:40:42.075Z,1.83
2022-10-24T00:43:21.029Z,2.17
2022-10-24T00:45:59.215Z,1.75
2022-10-24T00:48:50.441Z,1.95
2022-10-24T00:51:22.078Z,2.45
2022-10-24T00:53:51.890Z,1.52
2022-10-24T00:56:22.843Z,1.63
2022-10-24T00:58:52.102Z,1.40
2022-10-24T01:01:19.734Z,1.60
2022-10-24T01:03:47.644Z,1.95
2022-10-24T01:06:35.947Z,1.55
2022-10-24T01:09:43.499Z,1.88
2022-10-24T01:12:25.753Z,0.80
2022-10-24T01:15:21.702Z,1.15
2022-10-24T01:17:54.282Z,1.58
2022-10-24T01:20:30.050Z,1.48
2022-10-24T01:23:02.257Z,1.58
2022-10-24T01:25:43.962Z,1.20
2022-10-24T01:28:11.015Z,1.30
2022-10-24T01:30:52.019Z,1.83
2022-10-24T01:33:36.321Z,1.45
2022-10-24T01:36:15.585Z,1.67
2022-10-24T01:38:53.364Z,1.92
2022-10-24T01:41:24.122Z,1.63
2022-10-24T01:44:08.100Z,1.70
2022-10-24T01:46:56.546Z,1.45
2022-10-24T01:49:29.646Z,1.52
2022-10-24T01:52:00.274Z,1.20
2022-10-24T01:54:28.228Z,1.65
2022-10-24T01:56:55.079Z,1.38
2022-10-24T01:59:28.457Z,1.20
2022-10-24T02:02:23.996Z,1.77
2022-10-24T02:05:05.406Z,1.30
2022-10-24T02:07:34.407Z,1.92
2022-10-24T02:10:19.660Z,1.50
2022-10-24T02:12:52.587Z,1.75
2022-10-24T02:15:27.514Z,1.27
2022-10-24T02:17:55.664Z,1.30
2022-10-24T02:20:47.510Z,2.28
2022-10-24T02:23:17.613Z,1.40
2022-10-24T02:25:49.396Z,1.73
2022-10-24T02:28:26.249Z,1.75
2022-10-24T02:31:07.388Z,1.20
2022-10-24T02:33:36.082Z,1.92
2022-10-24T02:36:04.641Z,1.70
2022-10-24T02:38:36.660Z,1.98
2022-10-24T02:41:09.073Z,1.73
2022-10-24T02:43:36.795Z,1.60
2022-10-24T02:46:05.283Z,1.73
2022-10-24T02:48:36.428Z,1.65
2022-10-24T02:51:07.787Z,1.88
2022-10-24T02:53:37.127Z,1.80
2022-10-24T02:56:04.642Z,1.95
2022-10-24T02:58:31.594Z,1.67
2022-10-24T03:00:58.851Z,1.73
2022-10-24T03:03:26.122Z,1.88
2022-10-24T03:05:52.915Z,1.58
2022-10-24T03:08:19.810Z,1.40
2022-10-24T03:10:47.179Z,1.67
2022-10-24T03:13:14.188Z,1.48
2022-10-24T03:15:41.193Z,1.40
2022-10-24T03:18:08.219Z,1.67
2022-10-24T03:20:35.338Z,1.40
2022-10-24T03:23:02.386Z,1.52
2022-10-24T03:25:29.425Z,1.33
2022-10-24T03:27:56.482Z,1.60
2022-10-24T03:30:23.426Z,1.52
2022-10-24T03:32:50.391Z,1.98
2022-10-24T03:35:17.807Z,1.60
2022-10-24T03:37:44.796Z,2.08
2022-10-24T03:40:12.319Z,2.08
2022-10-24T03:42:39.589Z,1.67
2022-10-24T03:45:07.569Z,1.52
2022-10-24T03:47:34.604Z,1.58
2022-10-24T03:50:01.751Z,2.50
2022-10-24T03:52:28.693Z,2.10
2022-10-24T03:54:55.525Z,2.10
2022-10-24T03:59:54.165Z,1.98
2022-10-24T04:02:22.424Z,1.73
2022-10-24T04:04:49.355Z,2.05
2022-10-24T04:07:16.269Z,1.92
2022-10-24T04:09:43.164Z,2.10
2022-10-24T04:12:10.038Z,1.92
2022-10-24T04:14:37.031Z,1.55
2022-10-24T04:17:04.057Z,2.30
2022-10-24T04:19:31.162Z,2.03
2022-10-24T04:21:58.607Z,1.60
2022-10-24T04:24:26.148Z,2.17
2022-10-24T04:26:53.129Z,1.88
2022-10-24T04:29:20.293Z,1.40
2022-10-24T04:31:47.432Z,3.10
2022-10-24T04:34:14.734Z,2.40
2022-10-24T04:36:41.593Z,1.70
2022-10-24T04:39:08.874Z,2.00
2022-10-24T04:41:35.819Z,2.13
2022-10-24T04:44:03.047Z,1.88
2022-10-24T04:46:31.065Z,2.00
2022-10-24T04:48:57.875Z,2.47
2022-10-24T04:51:28.072Z,1.98
2022-10-24T04:53:55.133Z,2.80
2022-10-24T04:56:22.804Z,1.60
2022-10-24T04:58:49.916Z,2.33
2022-10-24T05:01:17.226Z,2.28
2022-10-24T05:03:44.279Z,1.98
2022-10-24T05:06:11.220Z,2.60
2022-10-24T05:08:41.153Z,1.95
2022-10-24T05:11:11.421Z,2.00
2022-10-24T05:13:39.671Z,2.15
2022-10-24T05:16:07.039Z,1.98
2022-10-24T05:18:34.258Z,1.63
2022-10-24T05:21:01.977Z,1.90
2022-10-24T05:23:29.583Z,2.38
2022-10-24T05:25:56.901Z,1.85
2022-10-24T05:28:24.754Z,2.33
2022-10-24T05:30:51.561Z,2.05
2022-10-24T05:33:18.673Z,1.83
2022-10-24T05:35:45.517Z,2.10
2022-10-24T05:38:12.327Z,1.95
2022-10-24T05:40:39.332Z,2.35
2022-10-24T05:43:06.642Z,2.10
2022-10-24T05:45:33.548Z,1.83
2022-10-24T05:48:00.900Z,2.50
2022-10-24T05:50:30.078Z,2.55
2022-10-24T05:52:57.653Z,1.55
2022-10-24T05:55:24.735Z,2.22
2022-10-24T05:57:51.567Z,1.88
2022-10-24T06:00:19.311Z,2.13
2022-10-24T06:05:14.286Z,1.98
2022-10-24T06:07:42.261Z,2.47
2022-10-24T06:10:11.263Z,2.60
2022-10-24T06:12:38.512Z,2.35
2022-10-24T06:15:07.939Z,2.35
2022-10-24T06:17:34.843Z,2.47
2022-10-24T06:20:01.769Z,2.35
2022-10-24T06:22:29.885Z,1.95
2022-10-24T06:24:56.916Z,2.28
2022-10-24T06:27:24.112Z,2.70
2022-10-24T06:29:51.057Z,2.35
2022-10-24T06:32:17.985Z,1.70
2022-10-24T06:34:44.789Z,2.15
2022-10-24T06:37:11.610Z,2.03
2022-10-24T06:39:38.704Z,1.67
2022-10-24T06:42:05.777Z,1.52
2022-10-24T06:44:32.787Z,1.52
2022-10-24T06:46:59.582Z,2.13
2022-10-24T06:49:26.570Z,1.42
2022-10-24T06:51:53.811Z,1.75
2022-10-24T06:54:21.212Z,1.40
2022-10-24T06:56:49.283Z,1.85
2022-10-24T06:59:18.689Z,1.63
2022-10-24T07:01:46.847Z,1.92
2022-10-24T07:04:13.856Z,1.40
2022-10-24T07:06:41.340Z,1.70
2022-10-24T07:09:11.487Z,1.60
2022-10-24T07:11:41.402Z,1.83
2022-10-24T07:14:09.602Z,2.13
2022-10-24T07:16:37.183Z,1.55
2022-10-24T07:19:05.090Z,2.47
2022-10-24T07:21:33.186Z,2.10
2022-10-24T07:24:00.848Z,2.15
2022-10-24T07:26:28.997Z,1.95
2022-10-24T07:31:32.165Z,1.83
2022-10-24T07:34:00.858Z,1.45
2022-10-24T07:36:30.628Z,2.40
2022-10-24T07:38:59.493Z,2.70
2022-10-24T07:41:28.409Z,2.20
2022-10-24T07:43:56.909Z,2.05
2022-10-24T07:46:24.475Z,1.67
2022-10-24T07:48:52.018Z,2.30
2022-10-24T07:51:19.598Z,2.03
2022-10-24T07:53:47.186Z,1.80
2022-10-24T07:56:16.836Z,2.80
2022-10-24T07:58:45.308Z,2.25
2022-10-24T08:01:17.102Z,1.73
2022-10-24T08:03:44.659Z,1.90
2022-10-24T08:06:15.592Z,1.92
2022-10-24T08:08:43.024Z,2.55
2022-10-24T08:11:12.905Z,1.60
2022-10-24T08:13:39.931Z,1.42
2022-10-24T08:16:09.198Z,2.10
2022-10-24T08:18:39.512Z,1.48
2022-10-24T08:21:09.285Z,2.22
2022-10-24T08:23:38.481Z,1.50
2022-10-24T08:26:10.091Z,1.50
2022-10-24T08:28:37.078Z,1.45
2022-10-24T08:31:07.528Z,1.90
2022-10-24T08:33:35.437Z,3.17
2022-10-24T08:36:06.308Z,2.83
2022-10-24T08:38:33.455Z,3.08
2022-10-24T08:41:00.899Z,2.20
2022-10-24T08:43:28.033Z,3.30
2022-10-24T08:46:12.837Z,2.50
2022-10-24T08:49:16.253Z,3.08
2022-10-24T08:52:05.295Z,2.05
2022-10-24T08:54:39.685Z,4.00
2022-10-24T08:57:07.377Z,2.70
2022-10-24T08:59:36.653Z,2.70
2022-10-24T09:02:26.855Z,3.40
2022-10-24T09:05:01.983Z,2.58
2022-10-24T09:07:29.342Z,2.47
2022-10-24T09:10:10.765Z,2.53
2022-10-24T09:12:40.067Z,3.13
2022-10-24T09:15:16.276Z,2.10
2022-10-24T09:17:44.005Z,1.73
2022-10-24T09:20:27.709Z,1.90
2022-10-24T09:22:57.462Z,1.85
2022-10-24T09:25:30.602Z,2.10
2022-10-24T09:28:05.878Z,2.33
2022-10-24T09:30:34.272Z,1.50
2022-10-24T09:33:25.017Z,1.65
2022-10-24T09:35:54.521Z,2.08
2022-10-24T09:38:34.815Z,1.83
2022-10-24T09:41:22.615Z,1.63
2022-10-24T09:43:56.553Z,2.08
2022-10-24T09:46:45.364Z,1.70
2022-10-24T09:49:22.739Z,1.73
2022-10-24T09:52:20.456Z,1.67
2022-10-24T09:55:03.291Z,1.65
2022-10-24T09:57:39.688Z,1.83
2022-10-24T10:00:07.778Z,2.22
2022-10-24T10:02:36.632Z,1.92
2022-10-24T10:05:03.468Z,1.98
2022-10-24T10:07:35.913Z,1.77
2022-10-24T10:10:24.039Z,1.60
2022-10-24T10:13:01.520Z,1.95
2022-10-24T10:15:38.935Z,1.60
2022-10-24T10:18:24.156Z,1.67
2022-10-24T10:21:03.328Z,1.52
2022-10-24T10:23:37.794Z,1.77
2022-10-24T10:26:13.643Z,1.33
2022-10-24T10:28:53.069Z,1.77
2022-10-24T10:31:27.728Z,2.10
2022-10-24T10:34:06.518Z,1.98
2022-10-24T10:36:42.777Z,1.58
2022-10-24T10:39:45.063Z,1.60
2022-10-24T10:42:16.908Z,1.80
2022-10-24T10:45:02.464Z,1.30
2022-10-24T10:47:47.226Z,1.60
2022-10-24T10:50:45.128Z,1.65
2022-10-24T10:53:29.903Z,1.38
2022-10-24T10:56:18.069Z,1.35
2022-10-24T10:59:15.340Z,1.65
2022-10-24T11:01:57.178Z,1.50
2022-10-24T11:04:57.484Z,1.55
2022-10-24T11:07:39.372Z,1.83
2022-10-24T11:10:14.059Z,1.52
2022-10-24T11:12:45.525Z,1.48
2022-10-24T11:15:24.128Z,1.27
2022-10-24T11:18:12.653Z,1.25
2022-10-24T11:20:48.195Z,1.60
2022-10-24T11:23:17.677Z,1.95
2022-10-24T11:25:54.321Z,1.35
2022-10-24T11:28:44.797Z,1.15
2022-10-24T11:31:25.798Z,1.25
2022-10-24T11:33:58.785Z,1.50
2022-10-24T11:36:32.303Z,1.70
2022-10-24T11:39:09.368Z,1.38
2022-10-24T11:42:06.428Z,1.23
2022-10-24T11:44:51.568Z,1.58
2022-10-24T11:47:24.298Z,1.20
2022-10-24T11:50:03.798Z,1.00
2022-10-24T11:52:37.446Z,1.15
2022-10-24T11:55:15.188Z,1.13
2022-10-24T11:57:45.565Z,1.20
2022-10-24T12:00:46.914Z,1.60
2022-10-24T12:03:32.127Z,1.23
2022-10-24T12:06:02.098Z,1.50
2022-10-24T12:08:34.638Z,1.30
2022-10-24T12:11:04.327Z,1.58
2022-10-24T12:13:33.897Z,1.42
2022-10-24T12:16:13.892Z,1.33
2022-10-24T12:18:56.381Z,1.10
2022-10-24T12:21:27.178Z,1.02
2022-10-24T12:23:57.845Z,1.27
2022-10-24T12:26:35.628Z,1.08
2022-10-24T12:29:05.584Z,1.50
2022-10-24T12:31:37.727Z,1.60
2022-10-24T12:34:17.033Z,1.00
2022-10-24T12:37:09.673Z,1.20
2022-10-24T12:39:40.272Z,0.80
2022-10-24T12:42:20.536Z,0.80
2022-10-24T12:44:50.837Z,1.17
2022-10-24T12:47:44.534Z,0.80
2022-10-24T12:50:23.163Z,0.93
2022-10-24T12:52:54.728Z,0.95
2022-10-24T12:55:39.307Z,1.20
2022-10-24T12:58:30.876Z,1.10
2022-10-24T13:01:01.955Z,1.20
2022-10-24T13:03:50.632Z,1.23
2022-10-24T13:06:32.065Z,0.88
2022-10-24T13:09:23.347Z,1.45
2022-10-24T13:12:17.934Z,1.15
2022-10-24T13:15:19.876Z,1.20
2022-10-24T13:18:08.213Z,1.45
2022-10-24T13:20:41.440Z,1.60
2022-10-24T13:23:18.558Z,1.20
2022-10-24T13:25:46.556Z,1.02
2022-10-24T13:28:25.167Z,1.23
2022-10-24T13:31:17.934Z,0.98
2022-10-24T13:33:45.927Z,1.45
2022-10-24T13:36:23.112Z,1.60
2022-10-24T13:39:05.069Z,1.20
2022-10-24T13:41:43.599Z,1.50
2022-10-24T13:44:23.153Z,1.35
2022-10-24T13:46:54.852Z,1.55
2022-10-24T13:49:38.068Z,1.27
2022-10-24T13:52:21.745Z,1.40
2022-10-24T13:54:56.632Z,1.35
2022-10-24T13:57:38.349Z,2.17
2022-10-24T14:00:18.986Z,1.40
2022-10-24T14:02:46.732Z,1.40
2022-10-24T14:05:32.490Z,1.30
2022-10-24T14:08:01.662Z,1.30
2022-10-24T14:10:29.598Z,1.33
2022-10-24T14:12:57.351Z,1.75
2022-10-24T14:15:31.004Z,1.38
2022-10-24T14:18:01.079Z,1.70
2022-10-24T14:20:36.841Z,1.50
2022-10-24T14:23:41.904Z,1.55
2022-10-24T14:26:19.480Z,2.00
2022-10-24T14:28:59.927Z,1.73
2022-10-24T14:31:35.106Z,1.40
2022-10-24T14:34:05.994Z,1.70
2022-10-24T14:36:38.155Z,1.80
2022-10-24T14:39:05.700Z,1.48
2022-10-24T14:41:42.868Z,1.60
2022-10-24T14:44:16.036Z,2.00
2022-10-24T14:46:45.627Z,1.48
2022-10-24T14:49:21.539Z,1.60
2022-10-24T14:54:22.666Z,1.85
2022-10-24T14:56:52.157Z,1.63
2022-10-24T14:59:41.233Z,1.98
2022-10-24T15:02:30.096Z,1.70
2022-10-24T15:05:35.612Z,1.58
2022-10-24T15:08:23.540Z,2.00
2022-10-24T15:11:04.999Z,2.20
2022-10-24T15:13:34.109Z,2.25
2022-10-24T15:16:01.629Z,1.40
2022-10-24T15:18:58.479Z,2.10
2022-10-24T15:21:31.020Z,2.70
2022-10-24T15:24:00.857Z,1.42
2022-10-24T15:26:37.160Z,1.40
2022-10-24T15:29:05.296Z,1.35
2022-10-24T15:31:34.901Z,1.38
2022-10-24T15:34:01.949Z,1.85
2022-10-24T15:36:32.916Z,2.22
2022-10-24T15:39:05.456Z,2.20
2022-10-24T15:41:33.298Z,1.92
2022-10-24T15:44:00.825Z,2.67
2022-10-24T15:46:28.289Z,1.67
2022-10-24T15:48:55.333Z,1.73
2022-10-24T15:51:24.542Z,2.05
2022-10-24T15:53:53.213Z,2.15
2022-10-24T15:56:20.283Z,1.92
2022-10-24T16:01:31.849Z,1.92
2022-10-24T16:04:00.019Z,1.65
2022-10-24T16:06:28.723Z,2.22
2022-10-24T16:08:56.230Z,3.00
2022-10-24T16:11:23.384Z,2.67
2022-10-24T16:13:50.227Z,2.15
2022-10-24T16:16:17.090Z,2.05
2022-10-24T16:18:44.063Z,1.52
2022-10-24T16:21:17.770Z,1.73
2022-10-24T16:23:45.215Z,1.25
2022-10-24T16:26:12.255Z,0.93
2022-10-24T16:28:39.187Z,0.90
2022-10-24T16:31:07.052Z,1.20
2022-10-24T16:33:34.169Z,0.88
2022-10-24T16:36:01.557Z,0.80
2022-10-24T16:38:29.011Z,0.50
2022-10-24T16:40:56.155Z,0.88
2022-10-24T16:43:23.274Z,0.85
2022-10-24T16:46:03.586Z,0.60
2022-10-24T16:48:30.714Z,0.75
2022-10-24T16:50:57.853Z,0.60
2022-10-24T16:53:24.984Z,0.77
2022-10-24T16:55:53.835Z,1.50
2022-10-24T16:58:21.381Z,1.02
2022-10-24T17:00:48.659Z,1.10
2022-10-24T17:03:16.237Z,1.83
2022-10-24T17:08:13.765Z,3.58
2022-10-24T17:10:40.584Z,2.83
2022-10-24T17:13:07.780Z,2.55
2022-10-24T17:15:34.952Z,4.38
2022-10-24T17:18:02.084Z,2.53
2022-10-24T17:20:29.117Z,2.95
2022-10-24T17:22:56.623Z,2.97
2022-10-24T17:25:28.389Z,3.13
2022-10-24T17:27:55.484Z,6.28
2022-10-24T17:30:28.422Z,6.57
2022-10-24T17:32:55.739Z,5.85
2022-10-24T17:35:25.075Z,5.90
2022-10-24T17:38:13.990Z,4.68
2022-10-24T17:40:47.631Z,2.70
2022-10-24T17:43:26.049Z,3.40
2022-10-24T17:45:56.049Z,2.50
2022-10-24T17:48:24.558Z,3.00
2022-10-24T17:50:55.623Z,2.47
2022-10-24T17:53:22.608Z,2.17
2022-10-24T17:55:49.719Z,2.83
2022-10-24T17:58:16.914Z,2.80
2022-10-24T18:00:44.998Z,2.92
2022-10-24T18:03:12.671Z,2.83
2022-10-24T18:05:40.544Z,3.33
2022-10-24T18:08:09.494Z,2.33
2022-10-24T18:10:40.656Z,2.80
2022-10-24T18:13:08.215Z,3.90
2022-10-24T18:15:36.389Z,2.33
2022-10-24T18:18:03.860Z,3.63
2022-10-24T18:20:32.297Z,5.40
2022-10-24T18:22:59.959Z,5.80
2022-10-24T18:25:27.490Z,6.82
2022-10-24T18:27:55.553Z,3.55
2022-10-24T18:30:22.680Z,4.00
2022-10-24T18:32:49.912Z,4.57
2022-10-24T18:35:17.485Z,6.13
2022-10-24T18:37:44.433Z,7.50
2022-10-24T18:40:12.712Z,7.35
2022-10-24T18:43:01.330Z,5.63
2022-10-24T18:45:29.004Z,5.50
2022-10-24T18:47:56.335Z,6.80
2022-10-24T18:50:25.282Z,4.72
2022-10-24T18:53:06.709Z,3.33
2022-10-24T18:55:34.867Z,6.50
2022-10-24T18:58:02.346Z,6.95
2022-10-24T19:00:32.509Z,7.13
2022-10-24T19:03:18.608Z,7.50
2022-10-24T19:05:51.984Z,5.53
2022-10-24T19:08:24.378Z,9.68
2022-10-24T19:10:53.441Z,9.73
2022-10-24T19:13:20.514Z,11.95
2022-10-24T19:15:56.985Z,11.05
2022-10-24T19:18:25.772Z,6.88
2022-10-24T19:20:52.842Z,5.13
2022-10-24T19:23:19.801Z,4.93
2022-10-24T19:25:46.852Z,3.63
2022-10-24T19:28:18.270Z,4.95
2022-10-24T19:30:46.569Z,3.90
2022-10-24T19:33:15.193Z,5.13
2022-10-24T19:35:47.229Z,3.50
2022-10-24T19:38:15.857Z,3.90
2022-10-24T19:40:48.111Z,3.30
2022-10-24T19:43:15.358Z,2.92
2022-10-24T19:45:50.058Z,3.15
2022-10-24T19:48:23.126Z,3.03
2022-10-24T19:50:50.565Z,4.63
2022-10-24T19:53:17.920Z,4.45
2022-10-24T19:55:45.005Z,4.55
2022-10-24T19:58:20.117Z,3.80
2022-10-24T20:00:47.610Z,2.97
2022-10-24T20:03:16.269Z,2.40
2022-10-24T20:05:44.078Z,2.72
2022-10-24T20:08:11.088Z,2.78
2022-10-24T20:10:38.187Z,2.22
2022-10-24T20:13:05.083Z,2.42
2022-10-24T20:15:31.942Z,2.97
2022-10-24T20:17:58.991Z,2.60
2022-10-24T20:20:25.846Z,2.50
2022-10-24T20:22:53.010Z,2.70
2022-10-24T20:25:20.270Z,2.25
2022-10-24T20:27:47.669Z,2.08
2022-10-24T20:30:15.102Z,3.30
2022-10-24T20:32:42.207Z,2.70
2022-10-24T20:35:09.229Z,2.80
2022-10-24T20:37:36.217Z,2.45
2022-10-24T20:40:03.264Z,2.05
2022-10-24T20:42:30.131Z,1.95
2022-10-24T20:44:57.175Z,2.22
2022-10-24T20:47:24.173Z,2.20
2022-10-24T20:49:51.337Z,2.42
2022-10-24T20:52:18.538Z,2.10
2022-10-24T20:54:46.072Z,1.90
2022-10-24T20:57:13.363Z,1.73
2022-10-24T20:59:40.400Z,2.17
2022-10-24T21:02:09.956Z,2.45
2022-10-24T21:04:37.180Z,2.08
2022-10-24T21:07:04.229Z,2.70
2022-10-24T21:09:31.153Z,2.40
2022-10-24T21:11:57.999Z,2.67
2022-10-24T21:14:24.748Z,2.08
2022-10-24T21:16:51.561Z,1.95
2022-10-24T21:19:18.431Z,2.20
2022-10-24T21:21:45.249Z,1.88
2022-10-24T21:24:16.019Z,2.20
2022-10-24T21:26:42.879Z,2.13
2022-10-24T21:31:57.325Z,2.63
2022-10-24T21:34:25.183Z,2.10
2022-10-24T21:36:53.743Z,1.90
2022-10-24T21:39:20.799Z,2.05
2022-10-24T21:41:47.873Z,2.22
2022-10-24T21:44:14.829Z,2.35
2022-10-24T21:46:41.843Z,2.00
2022-10-24T21:49:10.303Z,2.58
2022-10-24T21:51:39.277Z,1.80
2022-10-24T21:54:14.160Z,1.77
2022-10-24T21:56:41.282Z,2.40
2022-10-24T21:59:12.718Z,1.77
2022-10-24T22:01:40.220Z,1.85
2022-10-24T22:04:07.804Z,2.03
2022-10-24T22:06:35.954Z,1.80
2022-10-24T22:09:04.429Z,2.13
2022-10-24T22:11:32.656Z,1.83
2022-10-24T22:14:00.041Z,2.10
2022-10-24T22:16:29.603Z,2.20
2022-10-24T22:18:59.669Z,1.73
2022-10-24T22:21:27.952Z,2.00
2022-10-24T22:23:59.928Z,2.20
2022-10-24T22:26:27.401Z,1.73
2022-10-24T22:28:58.199Z,1.95
2022-10-24T22:31:27.294Z,1.77
2022-10-24T22:33:54.976Z,2.17
2022-10-24T22:36:42.193Z,1.92
2022-10-24T22:39:19.833Z,1.70
2022-10-24T22:41:48.207Z,1.63
2022-10-24T22:44:17.246Z,1.83
2022-10-24T22:47:19.638Z,2.17
2022-10-24T22:50:21.820Z,2.30
2022-10-24T22:52:50.281Z,2.10
2022-10-24T22:55:33.862Z,2.22
2022-10-24T22:58:01.179Z,3.35
2022-10-24T23:00:28.538Z,1.70
2022-10-24T23:03:21.156Z,2.50
2022-10-24T23:05:58.005Z,2.08
2022-10-24T23:08:45.547Z,2.08
2022-10-24T23:11:13.681Z,2.47
2022-10-24T23:13:41.909Z,1.77
2022-10-24T23:16:53.120Z,2.58
2022-10-24T23:19:30.490Z,2.45
2022-10-24T23:22:07.265Z,2.40
2022-10-24T23:24:34.363Z,2.38
2022-10-24T23:27:20.901Z,2.35
2022-10-24T23:29:48.568Z,1.90
2022-10-24T23:32:25.556Z,2.17
2022-10-24T23:34:53.662Z,1.83
2022-10-24T23:37:37.497Z,1.98
2022-10-24T23:40:22.173Z,2.22
2022-10-24T23:42:50.541Z,2.50
2022-10-24T23:45:22.989Z,2.33
2022-10-24T23:48:08.867Z,2.50
2022-10-24T23:50:59.012Z,2.50
2022-10-24T23:53:49.091Z,2.25
2022-10-24T23:56:21.598Z,2.15
2022-10-24T23:58:49.476Z,2.08
